sensor_id;sensor_type;location;lat;lon;timestamp;pressure;altitude;pressure_sealevel;temperature;humidity
35443;BME280;21561;55.654;37.592;2023-07-09T00:01:54;99087.47;;;15.69;98.85
35443;BME280;21561;55.654;37.592;2023-07-09T00:04:21;99080.56;;;15.66;99.39
35443;BME280;21561;55.654;37.592;2023-07-09T00:06:48;99081.56;;;15.64;99.62
35443;BME280;21561;55.654;37.592;2023-07-09T00:09:17;99084.16;;;15.64;99.92
35443;BME280;21561;55.654;37.592;2023-07-09T00:11:46;99083.31;;;15.63;99.87
35443;BME280;21561;55.654;37.592;2023-07-09T00:14:15;99080.75;;;15.62;99.80
35443;BME280;21561;55.654;37.592;2023-07-09T00:16:45;99079.19;;;15.58;100.00
35443;BME280;21561;55.654;37.592;2023-07-09T00:19:20;99072.13;;;15.60;100.00
35443;BME280;21561;55.654;37.592;2023-07-09T00:21:50;99067.97;;;15.54;100.00
35443;BME280;21561;55.654;37.592;2023-07-09T00:24:21;99064.50;;;15.54;100.00
35443;BME280;21561;55.654;37.592;2023-07-09T00:26:49;99063.69;;;15.52;100.00
35443;BME280;21561;55.654;37.592;2023-07-09T00:29:17;99058.56;;;15.49;100.00
35443;BME280;21561;55.654;37.592;2023-07-09T00:31:44;99063.06;;;15.45;100.00
35443;BME280;21561;55.654;37.592;2023-07-09T00:34:14;99062.22;;;15.44;100.00
35443;BME280;21561;55.654;37.592;2023-07-09T00:36:42;99059.69;;;15.41;100.00
35443;BME280;21561;55.654;37.592;2023-07-09T00:39:22;99058.56;;;15.49;100.00
35443;BME280;21561;55.654;37.592;2023-07-09T00:41:50;99053.69;;;15.39;100.00
35443;BME280;21561;55.654;37.592;2023-07-09T00:51:59;99034.59;;;15.37;100.00
35443;BME280;21561;55.654;37.592;2023-07-09T00:54:46;99037.91;;;15.42;100.00
35443;BME280;21561;55.654;37.592;2023-07-09T00:57:17;99029.41;;;15.36;100.00
35443;BME280;21561;55.654;37.592;2023-07-09T00:59:56;99033.09;;;15.30;100.00
35443;BME280;21561;55.654;37.592;2023-07-09T01:02:25;99026.31;;;15.26;100.00
35443;BME280;21561;55.654;37.592;2023-07-09T01:04:57;99027.03;;;15.30;100.00
35443;BME280;21561;55.654;37.592;2023-07-09T01:07:31;99016.59;;;15.30;100.00
35443;BME280;21561;55.654;37.592;2023-07-09T01:09:58;99026.06;;;15.32;100.00
35443;BME280;21561;55.654;37.592;2023-07-09T01:12:25;99020.84;;;15.32;100.00
35443;BME280;21561;55.654;37.592;2023-07-09T01:14:55;99028.66;;;15.32;100.00
35443;BME280;21561;55.654;37.592;2023-07-09T01:17:27;99026.19;;;15.29;100.00
35443;BME280;21561;55.654;37.592;2023-07-09T01:19:56;99024.47;;;15.28;100.00
35443;BME280;21561;55.654;37.592;2023-07-09T01:22:23;99026.19;;;15.29;100.00
35443;BME280;21561;55.654;37.592;2023-07-09T01:25:05;99026.75;;;15.37;100.00
35443;BME280;21561;55.654;37.592;2023-07-09T01:27:41;99020.84;;;15.32;100.00
35443;BME280;21561;55.654;37.592;2023-07-09T01:30:16;99019.25;;;15.28;100.00
35443;BME280;21561;55.654;37.592;2023-07-09T01:32:43;99023.72;;;15.24;100.00
35443;BME280;21561;55.654;37.592;2023-07-09T01:35:14;99026.34;;;15.24;100.00
35443;BME280;21561;55.654;37.592;2023-07-09T01:37:43;99032.47;;;15.23;100.00
35443;BME280;21561;55.654;37.592;2023-07-09T01:40:13;99022.75;;;15.27;100.00
35443;BME280;21561;55.654;37.592;2023-07-09T01:42:57;99019.25;;;15.28;100.00
35443;BME280;21561;55.654;37.592;2023-07-09T01:45:28;99022.75;;;15.27;100.00
35443;BME280;21561;55.654;37.592;2023-07-09T01:47:55;99023.63;;;15.27;100.00
35443;BME280;21561;55.654;37.592;2023-07-09T01:50:23;99017.44;;;15.30;100.00
35443;BME280;21561;55.654;37.592;2023-07-09T01:52:52;99019.25;;;15.28;100.00
35443;BME280;21561;55.654;37.592;2023-07-09T01:55:20;99015.75;;;15.29;100.00
35443;BME280;21561;55.654;37.592;2023-07-09T01:57:47;99018.06;;;15.37;100.00
35443;BME280;21561;55.654;37.592;2023-07-09T02:00:18;99018.00;;;15.38;100.00
35443;BME280;21561;55.654;37.592;2023-07-09T02:02:46;99018.91;;;15.37;100.00
35443;BME280;21561;55.654;37.592;2023-07-09T02:05:16;99020.63;;;15.38;100.00
35443;BME280;21561;55.654;37.592;2023-07-09T02:07:46;99020.63;;;15.38;100.00
35443;BME280;21561;55.654;37.592;2023-07-09T02:10:15;99017.81;;;15.43;100.00
35443;BME280;21561;55.654;37.592;2023-07-09T02:12:44;99020.03;;;15.54;100.00
35443;BME280;21561;55.654;37.592;2023-07-09T02:15:12;99019.81;;;15.60;99.74
35443;BME280;21561;55.654;37.592;2023-07-09T02:17:39;99014.59;;;15.60;99.41
35443;BME280;21561;55.654;37.592;2023-07-09T02:20:08;99021.50;;;15.61;99.83
35443;BME280;21561;55.654;37.592;2023-07-09T02:22:37;99015.44;;;15.60;99.84
35443;BME280;21561;55.654;37.592;2023-07-09T02:25:06;99016.06;;;15.67;99.69
35443;BME280;21561;55.654;37.592;2023-07-09T02:27:33;99020.25;;;15.71;99.69
35443;BME280;21561;55.654;37.592;2023-07-09T02:30:00;99012.34;;;15.74;99.74
35443;BME280;21561;55.654;37.592;2023-07-09T02:32:32;99014.97;;;15.74;99.59
35443;BME280;21561;55.654;37.592;2023-07-09T02:34:59;99019.16;;;15.78;99.97
35443;BME280;21561;55.654;37.592;2023-07-09T02:37:27;99014.53;;;15.85;99.81
35443;BME280;21561;55.654;37.592;2023-07-09T02:39:54;99013.56;;;15.88;99.35
35443;BME280;21561;55.654;37.592;2023-07-09T02:42:22;99017.84;;;15.90;99.36
35443;BME280;21561;55.654;37.592;2023-07-09T02:44:50;99009.06;;;15.91;99.75
35443;BME280;21561;55.654;37.592;2023-07-09T02:47:18;99011.63;;;15.93;99.63
35443;BME280;21561;55.654;37.592;2023-07-09T02:49:45;99015.59;;;16.03;98.45
35443;BME280;21561;55.654;37.592;2023-07-09T02:52:13;99010.34;;;16.03;99.09
35443;BME280;21561;55.654;37.592;2023-07-09T02:54:40;99003.19;;;16.08;98.25
35443;BME280;21561;55.654;37.592;2023-07-09T02:57:07;99010.53;;;16.20;97.45
35443;BME280;21561;55.654;37.592;2023-07-09T02:59:34;99008.56;;;16.26;98.51
35443;BME280;21561;55.654;37.592;2023-07-09T03:02:01;99007.50;;;16.31;98.06
35443;BME280;21561;55.654;37.592;2023-07-09T03:04:28;99010.63;;;16.39;97.94
35443;BME280;21561;55.654;37.592;2023-07-09T03:06:55;99010.25;;;16.49;98.12
35443;BME280;21561;55.654;37.592;2023-07-09T03:09:23;99014.63;;;16.48;97.79
35443;BME280;21561;55.654;37.592;2023-07-09T03:11:49;99005.72;;;16.52;97.50
35443;BME280;21561;55.654;37.592;2023-07-09T03:14:17;99002.88;;;16.58;97.63
35443;BME280;21561;55.654;37.592;2023-07-09T03:16:43;99001.75;;;16.64;97.38
35443;BME280;21561;55.654;37.592;2023-07-09T03:19:11;99008.50;;;16.70;97.06
35443;BME280;21561;55.654;37.592;2023-07-09T03:21:38;99006.16;;;16.84;95.83
35443;BME280;21561;55.654;37.592;2023-07-09T03:24:05;99004.16;;;16.91;90.03
35443;BME280;21561;55.654;37.592;2023-07-09T03:26:32;98990.16;;;17.11;88.47
35443;BME280;21561;55.654;37.592;2023-07-09T03:28:59;98992.47;;;17.38;82.98
35443;BME280;21561;55.654;37.592;2023-07-09T03:31:26;98981.63;;;17.64;81.08
35443;BME280;21561;55.654;37.592;2023-07-09T03:33:53;98985.91;;;17.86;79.60
35443;BME280;21561;55.654;37.592;2023-07-09T03:36:21;98991.34;;;18.00;78.15
35443;BME280;21561;55.654;37.592;2023-07-09T03:38:48;98994.22;;;18.13;77.18
35443;BME280;21561;55.654;37.592;2023-07-09T03:41:15;98994.59;;;18.23;79.14
35443;BME280;21561;55.654;37.592;2023-07-09T03:43:43;99002.66;;;18.37;78.80
35443;BME280;21561;55.654;37.592;2023-07-09T03:46:10;98995.25;;;18.45;75.24
35443;BME280;21561;55.654;37.592;2023-07-09T03:48:37;98997.34;;;18.56;75.94
35443;BME280;21561;55.654;37.592;2023-07-09T03:51:05;98993.69;;;18.59;78.65
35443;BME280;21561;55.654;37.592;2023-07-09T03:53:32;98998.75;;;18.63;76.98
35443;BME280;21561;55.654;37.592;2023-07-09T03:55:59;98992.00;;;18.75;75.01
35443;BME280;21561;55.654;37.592;2023-07-09T03:58:27;98986.31;;;18.84;76.81
35443;BME280;21561;55.654;37.592;2023-07-09T04:00:55;98982.19;;;18.96;73.57
35443;BME280;21561;55.654;37.592;2023-07-09T04:03:22;98986.88;;;19.07;73.09
35443;BME280;21561;55.654;37.592;2023-07-09T04:05:50;98987.28;;;19.17;71.54
35443;BME280;21561;55.654;37.592;2023-07-09T04:08:17;98987.63;;;19.26;71.98
35443;BME280;21561;55.654;37.592;2023-07-09T04:10:44;98987.31;;;19.33;67.84
35443;BME280;21561;55.654;37.592;2023-07-09T04:13:12;98983.41;;;19.40;68.13
35443;BME280;21561;55.654;37.592;2023-07-09T04:15:39;98986.47;;;19.48;66.61
35443;BME280;21561;55.654;37.592;2023-07-09T04:18:06;98976.38;;;19.56;67.52
35443;BME280;21561;55.654;37.592;2023-07-09T04:20:33;98981.81;;;19.69;67.54
35443;BME280;21561;55.654;37.592;2023-07-09T04:23:02;98983.97;;;19.78;66.58
35443;BME280;21561;55.654;37.592;2023-07-09T04:25:29;98982.44;;;19.90;67.63
35443;BME280;21561;55.654;37.592;2023-07-09T04:27:56;98976.28;;;20.06;67.29
35443;BME280;21561;55.654;37.592;2023-07-09T04:30:23;98971.09;;;20.20;67.24
35443;BME280;21561;55.654;37.592;2023-07-09T04:32:51;98972.25;;;20.30;67.51
35443;BME280;21561;55.654;37.592;2023-07-09T04:35:18;98962.66;;;20.29;64.16
35443;BME280;21561;55.654;37.592;2023-07-09T04:37:45;98961.44;;;20.35;63.86
35443;BME280;21561;55.654;37.592;2023-07-09T04:40:12;98962.09;;;20.38;63.72
35443;BME280;21561;55.654;37.592;2023-07-09T04:42:40;98962.69;;;20.44;62.80
35443;BME280;21561;55.654;37.592;2023-07-09T04:45:09;98961.38;;;20.51;62.31
35443;BME280;21561;55.654;37.592;2023-07-09T04:47:37;98959.34;;;20.56;62.23
35443;BME280;21561;55.654;37.592;2023-07-09T04:50:07;98957.13;;;20.64;62.14
35443;BME280;21561;55.654;37.592;2023-07-09T04:52:35;98955.84;;;20.71;62.13
35443;BME280;21561;55.654;37.592;2023-07-09T04:55:03;98953.00;;;20.74;60.36
35443;BME280;21561;55.654;37.592;2023-07-09T04:57:30;98941.91;;;20.84;59.26
35443;BME280;21561;55.654;37.592;2023-07-09T04:59:57;98941.53;;;20.90;58.08
35443;BME280;21561;55.654;37.592;2023-07-09T05:02:24;98946.16;;;21.01;58.11
35443;BME280;21561;55.654;37.592;2023-07-09T05:04:51;98939.63;;;21.06;56.91
35443;BME280;21561;55.654;37.592;2023-07-09T05:07:19;98936.81;;;21.09;56.09
35443;BME280;21561;55.654;37.592;2023-07-09T05:09:46;98934.19;;;21.09;55.70
35443;BME280;21561;55.654;37.592;2023-07-09T05:12:14;98941.25;;;21.09;55.83
35443;BME280;21561;55.654;37.592;2023-07-09T05:14:41;98934.19;;;21.09;55.45
35443;BME280;21561;55.654;37.592;2023-07-09T05:17:08;98942.75;;;21.13;56.26
35443;BME280;21561;55.654;37.592;2023-07-09T05:19:35;98938.88;;;21.19;55.50
35443;BME280;21561;55.654;37.592;2023-07-09T05:22:03;98925.50;;;21.22;54.40
35443;BME280;21561;55.654;37.592;2023-07-09T05:24:30;98925.34;;;21.25;53.77
35443;BME280;21561;55.654;37.592;2023-07-09T05:26:57;98922.56;;;21.26;53.07
35443;BME280;21561;55.654;37.592;2023-07-09T05:29:24;98927.00;;;21.26;53.38
35443;BME280;21561;55.654;37.592;2023-07-09T05:31:51;98925.97;;;21.28;53.58
35443;BME280;21561;55.654;37.592;2023-07-09T05:34:18;98919.66;;;21.31;53.55
35443;BME280;21561;55.654;37.592;2023-07-09T05:36:45;98912.50;;;21.33;52.63
35443;BME280;21561;55.654;37.592;2023-07-09T05:39:12;98909.66;;;21.36;51.99
35443;BME280;21561;55.654;37.592;2023-07-09T05:41:39;98912.94;;;21.40;51.76
35443;BME280;21561;55.654;37.592;2023-07-09T05:44:06;98915.69;;;21.38;52.26
35443;BME280;21561;55.654;37.592;2023-07-09T05:46:36;98904.94;;;21.41;50.91
35443;BME280;21561;55.654;37.592;2023-07-09T05:49:05;98916.63;;;21.37;51.48
35443;BME280;21561;55.654;37.592;2023-07-09T05:51:33;98899.84;;;21.38;50.49
35443;BME280;21561;55.654;37.592;2023-07-09T05:54:00;98893.53;;;21.41;50.20
35443;BME280;21561;55.654;37.592;2023-07-09T05:56:26;98886.47;;;21.41;49.68
35443;BME280;21561;55.654;37.592;2023-07-09T05:58:53;98898.59;;;21.44;49.71
35443;BME280;21561;55.654;37.592;2023-07-09T06:01:20;98888.34;;;21.53;49.59
35443;BME280;21561;55.654;37.592;2023-07-09T06:03:48;98877.59;;;21.57;48.88
35443;BME280;21561;55.654;37.592;2023-07-09T06:06:15;98869.66;;;21.57;48.04
35443;BME280;21561;55.654;37.592;2023-07-09T06:08:43;98882.75;;;21.58;48.76
35443;BME280;21561;55.654;37.592;2023-07-09T06:11:10;98873.81;;;21.61;48.29
35443;BME280;21561;55.654;37.592;2023-07-09T06:13:37;98876.97;;;21.66;48.05
35443;BME280;21561;55.654;37.592;2023-07-09T06:16:04;98875.75;;;21.71;47.78
35443;BME280;21561;55.654;37.592;2023-07-09T06:18:32;98876.19;;;21.78;47.58
35443;BME280;21561;55.654;37.592;2023-07-09T06:21:02;98882.75;;;21.85;47.99
35443;BME280;21561;55.654;37.592;2023-07-09T06:23:29;98883.63;;;21.86;48.04
35443;BME280;21561;55.654;37.592;2023-07-09T06:25:58;98889.53;;;21.89;48.19
35443;BME280;21561;55.654;37.592;2023-07-09T06:28:26;98887.84;;;21.88;48.45
35443;BME280;21561;55.654;37.592;2023-07-09T06:30:56;98898.41;;;21.88;48.74
35443;BME280;21561;55.654;37.592;2023-07-09T06:33:24;98881.81;;;21.86;48.49
35443;BME280;21561;55.654;37.592;2023-07-09T06:36:00;98888.28;;;21.95;48.21
35443;BME280;21561;55.654;37.592;2023-07-09T06:38:28;98880.66;;;21.90;48.21
35443;BME280;21561;55.654;37.592;2023-07-09T06:40:57;98873.47;;;21.92;47.92
35443;BME280;21561;55.654;37.592;2023-07-09T06:43:24;98821.28;;;21.83;46.20
35443;BME280;21561;55.654;37.592;2023-07-09T06:45:58;98839.03;;;21.81;45.82
35443;BME280;21561;55.654;37.592;2023-07-09T06:48:27;98863.94;;;21.77;46.50
35443;BME280;21561;55.654;37.592;2023-07-09T06:50:55;98859.50;;;21.78;46.25
35443;BME280;21561;55.654;37.592;2023-07-09T06:53:24;98834.44;;;21.70;46.03
35443;BME280;21561;55.654;37.592;2023-07-09T06:55:51;98791.03;;;21.62;44.84
35443;BME280;21561;55.654;37.592;2023-07-09T06:58:22;98818.47;;;21.59;45.23
35443;BME280;21561;55.654;37.592;2023-07-09T07:00:52;98865.56;;;21.65;46.44
35443;BME280;21561;55.654;37.592;2023-07-09T07:03:19;98859.78;;;21.73;45.72
35443;BME280;21561;55.654;37.592;2023-07-09T07:05:50;98854.66;;;21.84;46.07
35443;BME280;21561;55.654;37.592;2023-07-09T07:08:19;98840.31;;;21.88;45.59
35443;BME280;21561;55.654;37.592;2023-07-09T07:10:54;98797.84;;;21.91;44.92
35443;BME280;21561;55.654;37.592;2023-07-09T07:13:36;98832.19;;;21.91;45.64
35443;BME280;21561;55.654;37.592;2023-07-09T07:16:09;98814.09;;;21.85;44.95
35443;BME280;21561;55.654;37.592;2023-07-09T07:18:37;98793.56;;;21.63;44.44
35443;BME280;21561;55.654;37.592;2023-07-09T07:21:05;98826.31;;;21.61;45.04
35443;BME280;21561;55.654;37.592;2023-07-09T07:23:32;98833.25;;;21.62;45.01
35443;BME280;21561;55.654;37.592;2023-07-09T07:25:59;98817.63;;;21.59;44.53
35443;BME280;21561;55.654;37.592;2023-07-09T07:28:26;98798.63;;;21.53;44.19
35443;BME280;21561;55.654;37.592;2023-07-09T07:31:05;98844.22;;;21.56;45.46
35443;BME280;21561;55.654;37.592;2023-07-09T07:33:35;98844.50;;;21.51;45.04
35443;BME280;21561;55.654;37.592;2023-07-09T07:36:06;98821.59;;;21.51;44.36
35443;BME280;21561;55.654;37.592;2023-07-09T07:38:36;98846.13;;;21.53;44.96
35443;BME280;21561;55.654;37.592;2023-07-09T07:41:03;98857.75;;;21.64;45.18
35443;BME280;21561;55.654;37.592;2023-07-09T07:43:30;98855.06;;;21.78;45.41
35443;BME280;21561;55.654;37.592;2023-07-09T07:45:57;98815.06;;;21.84;44.14
35443;BME280;21561;55.654;37.592;2023-07-09T07:48:24;98766.16;;;21.91;43.63
35443;BME280;21561;55.654;37.592;2023-07-09T07:50:51;98789.84;;;22.06;44.15
35443;BME280;21561;55.654;37.592;2023-07-09T07:53:18;98763.84;;;22.25;42.93
35443;BME280;21561;55.654;37.592;2023-07-09T07:55:45;98741.44;;;22.44;42.47
35443;BME280;21561;55.654;37.592;2023-07-09T07:58:13;98752.81;;;22.57;42.77
35443;BME280;21561;55.654;37.592;2023-07-09T08:00:40;98764.66;;;22.64;43.36
35443;BME280;21561;55.654;37.592;2023-07-09T08:03:07;98773.66;;;22.62;43.23
35443;BME280;21561;55.654;37.592;2023-07-09T08:05:34;98780.97;;;22.58;43.42
35443;BME280;21561;55.654;37.592;2023-07-09T08:08:01;98804.41;;;22.63;43.81
35443;BME280;21561;55.654;37.592;2023-07-09T08:10:28;98794.06;;;22.73;42.92
35443;BME280;21561;55.654;37.592;2023-07-09T08:12:55;98768.88;;;22.80;42.94
35443;BME280;21561;55.654;37.592;2023-07-09T08:15:24;98736.91;;;22.83;42.23
35443;BME280;21561;55.654;37.592;2023-07-09T08:17:51;98701.25;;;22.88;41.59
35443;BME280;21561;55.654;37.592;2023-07-09T08:20:19;98702.81;;;22.91;41.57
35443;BME280;21561;55.654;37.592;2023-07-09T08:22:45;98646.75;;;22.86;40.58
35443;BME280;21561;55.654;37.592;2023-07-09T08:25:13;98631.97;;;22.83;40.31
35443;BME280;21561;55.654;37.592;2023-07-09T08:27:40;98656.09;;;22.79;41.09
35443;BME280;21561;55.654;37.592;2023-07-09T08:30:07;98631.16;;;22.70;39.57
35443;BME280;21561;55.654;37.592;2023-07-09T08:32:34;98564.19;;;22.58;39.62
35443;BME280;21561;55.654;37.592;2023-07-09T08:35:01;98547.41;;;22.46;39.09
35443;BME280;21561;55.654;37.592;2023-07-09T08:37:48;98580.66;;;22.38;39.83
35443;BME280;21561;55.654;37.592;2023-07-09T08:40:16;98632.16;;;22.32;40.70
35443;BME280;21561;55.654;37.592;2023-07-09T08:42:46;98685.88;;;22.33;41.34
35443;BME280;21561;55.654;37.592;2023-07-09T08:45:50;98728.84;;;22.47;42.03
35443;BME280;21561;55.654;37.592;2023-07-09T08:48:31;98727.63;;;22.64;41.77
35443;BME280;21561;55.654;37.592;2023-07-09T08:51:04;98679.84;;;22.67;40.38
35443;BME280;21561;55.654;37.592;2023-07-09T08:53:39;98660.13;;;22.72;40.06
35443;BME280;21561;55.654;37.592;2023-07-09T08:56:09;98641.31;;;22.76;39.87
35443;BME280;21561;55.654;37.592;2023-07-09T08:58:38;98569.78;;;22.78;38.13
35443;BME280;21561;55.654;37.592;2023-07-09T09:01:17;98544.78;;;22.82;39.24
35443;BME280;21561;55.654;37.592;2023-07-09T09:03:47;98532.16;;;22.74;38.94
35443;BME280;21561;55.654;37.592;2023-07-09T09:06:30;98559.44;;;22.75;38.94
35443;BME280;21561;55.654;37.592;2023-07-09T09:14:38;98570.81;;;22.88;39.15
35443;BME280;21561;55.654;37.592;2023-07-09T09:17:17;98568.97;;;23.13;39.25
35443;BME280;21561;55.654;37.592;2023-07-09T09:22:35;98525.69;;;23.70;38.55
35443;BME280;21561;55.654;37.592;2023-07-09T09:25:33;98524.50;;;23.97;38.88
35443;BME280;21561;55.654;37.592;2023-07-09T09:28:01;98469.38;;;23.91;37.12
35443;BME280;21561;55.654;37.592;2023-07-09T09:30:29;98471.06;;;23.80;37.37
35443;BME280;21561;55.654;37.592;2023-07-09T09:32:59;98507.41;;;23.78;37.75
35443;BME280;21561;55.654;37.592;2023-07-09T09:35:35;98526.41;;;23.72;38.44
35443;BME280;21561;55.654;37.592;2023-07-09T09:38:10;98518.25;;;23.53;38.63
35443;BME280;21561;55.654;37.592;2023-07-09T09:40:37;98535.28;;;23.15;38.98
35443;BME280;21561;55.654;37.592;2023-07-09T09:43:15;98581.94;;;23.04;39.51
35443;BME280;21561;55.654;37.592;2023-07-09T09:45:44;98597.91;;;23.03;39.82
35443;BME280;21561;55.654;37.592;2023-07-09T09:48:26;98611.56;;;23.21;39.81
35443;BME280;21561;55.654;37.592;2023-07-09T09:50:54;98602.25;;;23.62;39.32
35443;BME280;21561;55.654;37.592;2023-07-09T09:53:24;98557.63;;;24.35;38.58
35443;BME280;21561;55.654;37.592;2023-07-09T09:55:52;98444.94;;;24.40;37.07
35443;BME280;21561;55.654;37.592;2023-07-09T09:58:24;98385.00;;;24.07;36.48
35443;BME280;21561;55.654;37.592;2023-07-09T10:00:54;98415.38;;;24.03;35.45
35443;BME280;21561;55.654;37.592;2023-07-09T10:03:32;98358.50;;;24.07;35.34
35443;BME280;21561;55.654;37.592;2023-07-09T10:06:15;98341.97;;;24.57;34.79
35443;BME280;21561;55.654;37.592;2023-07-09T10:08:57;98264.47;;;25.74;33.64
35443;BME280;21561;55.654;37.592;2023-07-09T10:11:46;98182.13;;;27.22;32.55
35443;BME280;21561;55.654;37.592;2023-07-09T10:20:15;97945.41;;;29.04;29.61
35443;BME280;21561;55.654;37.592;2023-07-09T10:26:32;98084.47;;;27.22;31.71
35443;BME280;21561;55.654;37.592;2023-07-09T10:31:20;98260.28;;;25.81;34.53
35443;BME280;21561;55.654;37.592;2023-07-09T10:39:47;98284.94;;;26.77;32.65
35443;BME280;21561;55.654;37.592;2023-07-09T10:42:34;98200.44;;;27.79;31.89
35443;BME280;21561;55.654;37.592;2023-07-09T10:45:09;98135.63;;;29.06;29.78
35443;BME280;21561;55.654;37.592;2023-07-09T10:47:45;98050.81;;;29.49;29.00
35443;BME280;21561;55.654;37.592;2023-07-09T10:55:56;98113.91;;;27.21;31.80
35443;BME280;21561;55.654;37.592;2023-07-09T10:58:35;98229.28;;;26.66;33.12
35443;BME280;21561;55.654;37.592;2023-07-09T11:01:04;98277.59;;;26.04;33.90
35443;BME280;21561;55.654;37.592;2023-07-09T11:04:05;98307.41;;;25.98;34.12
35443;BME280;21561;55.654;37.592;2023-07-09T11:06:46;98325.41;;;25.46;33.90
35443;BME280;21561;55.654;37.592;2023-07-09T11:09:35;98370.00;;;25.11;34.49
35443;BME280;21561;55.654;37.592;2023-07-09T11:12:10;98361.34;;;25.19;34.33
35443;BME280;21561;55.654;37.592;2023-07-09T11:14:49;98318.97;;;25.58;32.89
35443;BME280;21561;55.654;37.592;2023-07-09T11:17:20;98280.13;;;25.86;32.70
35443;BME280;21561;55.654;37.592;2023-07-09T11:19:54;98276.16;;;26.20;32.83
35443;BME280;21561;55.654;37.592;2023-07-09T11:22:23;98241.84;;;26.36;32.69
35443;BME280;21561;55.654;37.592;2023-07-09T11:25:03;98235.31;;;26.21;32.62
35443;BME280;21561;55.654;37.592;2023-07-09T11:27:31;98247.94;;;26.09;33.04
35443;BME280;21561;55.654;37.592;2023-07-09T11:32:33;98229.50;;;25.78;32.85
35443;BME280;21561;55.654;37.592;2023-07-09T11:35:08;98299.44;;;25.59;33.83
35443;BME280;21561;55.654;37.592;2023-07-09T11:37:45;98347.34;;;25.48;34.46
35443;BME280;21561;55.654;37.592;2023-07-09T11:40:14;98372.94;;;25.49;34.93
35443;BME280;21561;55.654;37.592;2023-07-09T11:42:58;98429.22;;;25.43;35.43
35443;BME280;21561;55.654;37.592;2023-07-09T11:45:31;98431.66;;;25.65;34.99
35443;BME280;21561;55.654;37.592;2023-07-09T11:50:47;98389.44;;;26.79;33.75
35443;BME280;21561;55.654;37.592;2023-07-09T11:56:00;98252.03;;;27.78;31.54
35443;BME280;21561;55.654;37.592;2023-07-09T11:58:27;98213.53;;;27.90;30.99
35443;BME280;21561;55.654;37.592;2023-07-09T12:00:56;98153.09;;;27.99;30.39
35443;BME280;21561;55.654;37.592;2023-07-09T12:03:35;98099.34;;;28.12;30.46
35443;BME280;21561;55.654;37.592;2023-07-09T12:06:29;98081.44;;;28.30;30.22
35443;BME280;21561;55.654;37.592;2023-07-09T12:08:57;98057.66;;;28.62;29.08
35443;BME280;21561;55.654;37.592;2023-07-09T12:11:31;98022.81;;;29.29;28.40
35443;BME280;21561;55.654;37.592;2023-07-09T12:14:10;97899.97;;;29.29;27.40
35443;BME280;21561;55.654;37.592;2023-07-09T12:16:42;97847.03;;;28.68;27.67
35443;BME280;21561;55.654;37.592;2023-07-09T12:19:11;97857.69;;;27.86;27.95
35443;BME280;21561;55.654;37.592;2023-07-09T12:21:40;97907.75;;;27.66;29.01
35443;BME280;21561;55.654;37.592;2023-07-09T12:24:21;97947.56;;;27.68;28.85
35443;BME280;21561;55.654;37.592;2023-07-09T12:26:51;97964.47;;;27.24;29.49
35443;BME280;21561;55.654;37.592;2023-07-09T12:29:19;97992.41;;;26.94;30.35
35443;BME280;21561;55.654;37.592;2023-07-09T12:31:46;98078.13;;;26.79;31.28
35443;BME280;21561;55.654;37.592;2023-07-09T12:34:13;98138.91;;;26.46;32.01
35443;BME280;21561;55.654;37.592;2023-07-09T12:36:45;98191.69;;;26.04;33.11
35443;BME280;21561;55.654;37.592;2023-07-09T12:39:12;98230.47;;;26.06;33.04
35443;BME280;21561;55.654;37.592;2023-07-09T12:41:43;98281.47;;;25.22;34.23
35443;BME280;21561;55.654;37.592;2023-07-09T12:44:19;98329.19;;;25.03;34.69
35443;BME280;21561;55.654;37.592;2023-07-09T12:46:48;98381.88;;;24.76;35.59
35443;BME280;21561;55.654;37.592;2023-07-09T12:49:27;98402.22;;;24.76;35.01
35443;BME280;21561;55.654;37.592;2023-07-09T12:51:55;98412.78;;;24.66;35.17
35443;BME280;21561;55.654;37.592;2023-07-09T12:54:23;98402.88;;;24.68;34.98
35443;BME280;21561;55.654;37.592;2023-07-09T12:56:52;98446.28;;;24.88;36.30
35443;BME280;21561;55.654;37.592;2023-07-09T12:59:25;98476.94;;;25.23;36.06
35443;BME280;21561;55.654;37.592;2023-07-09T13:02:00;98485.88;;;25.94;35.50
35443;BME280;21561;55.654;37.592;2023-07-09T13:04:33;98452.59;;;26.58;34.58
35443;BME280;21561;55.654;37.592;2023-07-09T13:07:02;98438.88;;;27.19;34.51
35443;BME280;21561;55.654;37.592;2023-07-09T13:09:29;98413.47;;;27.63;33.91
35443;BME280;21561;55.654;37.592;2023-07-09T13:11:57;98364.19;;;27.94;32.97
35443;BME280;21561;55.654;37.592;2023-07-09T13:14:30;98304.91;;;27.83;33.01
35443;BME280;21561;55.654;37.592;2023-07-09T13:17:09;98321.03;;;27.45;33.49
35443;BME280;21561;55.654;37.592;2023-07-09T13:19:36;98340.06;;;28.22;32.88
35443;BME280;21561;55.654;37.592;2023-07-09T13:22:07;98297.31;;;29.43;31.64
35443;BME280;21561;55.654;37.592;2023-07-09T13:24:38;98196.38;;;30.19;30.04
35443;BME280;21561;55.654;37.592;2023-07-09T13:27:10;98124.78;;;30.38;29.35
35443;BME280;21561;55.654;37.592;2023-07-09T13:29:38;98097.56;;;29.78;29.65
35443;BME280;21561;55.654;37.592;2023-07-09T13:32:10;98110.63;;;29.24;30.08
35443;BME280;21561;55.654;37.592;2023-07-09T13:34:37;98137.69;;;28.11;31.54
35443;BME280;21561;55.654;37.592;2023-07-09T13:37:11;98185.44;;;27.34;32.22
35443;BME280;21561;55.654;37.592;2023-07-09T13:39:39;98246.44;;;26.44;33.86
35443;BME280;21561;55.654;37.592;2023-07-09T13:42:12;98332.44;;;26.05;34.99
35443;BME280;21561;55.654;37.592;2023-07-09T13:44:41;98394.22;;;25.68;36.03
35443;BME280;21561;55.654;37.592;2023-07-09T13:47:12;98433.88;;;25.60;36.13
35443;BME280;21561;55.654;37.592;2023-07-09T13:49:39;98443.88;;;25.37;35.97
35443;BME280;21561;55.654;37.592;2023-07-09T13:52:15;98486.31;;;25.27;36.44